Time,TemperatureF,DewpointF,PressureIn,WindDirection,WindDirectionDegrees,WindSpeedMPH,WindSpeedGustMPH,Humidity,HourlyPrecipIn,Conditions,Clouds,dailyrainin,SoftwareType,DateUTC
2013-01-01 00:00:00,34.6,29.4,30.09,SSW,210,0.0,0.0,81,0.00,,,0.00,Wunderground v.1.15,2013-01-01 05:00:00,
2013-01-01 00:05:00,34.6,29.4,30.09,SSW,210,0.0,0.0,81,0.00,,,0.00,Wunderground v.1.15,2013-01-01 05:05:00,
2013-01-01 00:10:00,34.6,30.0,30.09,SSW,210,0.0,0.0,83,0.00,,,0.00,Wunderground v.1.15,2013-01-01 05:10:00,
2013-01-01 00:20:00,34.3,30.0,30.09,SSW,210,0.0,0.0,84,0.00,,,0.00,Wunderground v.1.15,2013-01-01 05:20:00,
2013-01-01 00:30:00,34.1,30.1,30.10,SW,222,0.0,0.0,85,0.00,,,0.00,Wunderground v.1.15,2013-01-01 05:30:00,
2013-01-01 00:39:00,34.3,30.3,30.10,SW,222,0.0,0.0,85,0.00,,,0.00,Wunderground v.1.15,2013-01-01 05:39:00,
2013-01-01 00:45:00,34.1,30.4,30.09,SW,222,0.0,0.0,86,0.00,,,0.00,Wunderground v.1.15,2013-01-01 05:45:00,
2013-01-01 00:55:00,34.1,30.4,30.09,SW,222,0.0,0.0,86,0.00,,,0.00,Wunderground v.1.15,2013-01-01 05:55:00,
2013-01-01 00:59:00,34.1,30.6,30.09,SW,222,0.0,0.0,87,0.00,,,0.00,Wunderground v.1.15,2013-01-01 05:59:00,
2013-01-01 01:05:00,34.1,30.6,30.09,SW,222,0.0,0.0,87,0.00,,,0.00,Wunderground v.1.15,2013-01-01 06:05:00,
2013-01-01 01:09:00,34.1,30.6,30.09,SW,222,0.0,0.0,87,0.00,,,0.00,Wunderground v.1.15,2013-01-01 06:09:00,
2013-01-01 01:15:00,34.1,30.6,30.08,SW,222,0.0,0.0,87,0.00,,,0.00,Wunderground v.1.15,2013-01-01 06:15:00,
2013-01-01 01:25:00,33.8,30.6,30.08,SW,222,0.0,0.0,88,0.00,,,0.00,Wunderground v.1.15,2013-01-01 06:25:00,
2013-01-01 01:30:00,33.7,30.8,30.07,SW,222,0.0,0.0,89,0.00,,,0.00,Wunderground v.1.15,2013-01-01 06:30:00,
2013-01-01 01:40:00,33.5,30.6,30.07,SW,222,0.0,0.0,89,0.00,,,0.00,Wunderground v.1.15,2013-01-01 06:40:00,
2013-01-01 01:45:00,33.4,30.8,30.06,SW,222,0.0,0.0,90,0.00,,,0.00,Wunderground v.1.15,2013-01-01 06:45:00,
2013-01-01 01:55:00,33.4,31.1,30.06,SW,222,0.0,0.0,91,0.00,,,0.00,Wunderground v.1.15,2013-01-01 06:55:00,
2013-01-01 02:05:00,33.2,30.9,30.06,SW,222,0.0,0.0,91,0.00,,,0.00,Wunderground v.1.15,2013-01-01 07:05:00,
2013-01-01 02:10:00,33.1,30.8,30.06,SW,222,0.0,0.0,91,0.00,,,0.00,Wunderground v.1.15,2013-01-01 07:10:00,
2013-01-01 02:20:00,33.1,31.0,30.06,SW,222,0.0,0.0,92,0.00,,,0.00,Wunderground v.1.15,2013-01-01 07:20:00,
2013-01-01 02:30:00,33.1,31.0,30.06,SW,222,0.0,0.0,92,0.00,,,0.00,Wunderground v.1.15,2013-01-01 07:30:00,
2013-01-01 02:39:00,32.9,31.1,30.06,SW,222,0.0,0.0,93,0.00,,,0.00,Wunderground v.1.15,2013-01-01 07:39:00,
2013-01-01 02:45:00,32.9,31.1,30.06,SW,222,0.0,0.0,93,0.00,,,0.00,Wunderground v.1.15,2013-01-01 07:45:00,
2013-01-01 02:55:00,32.9,31.1,30.06,SW,222,0.0,0.0,93,0.00,,,0.00,Wunderground v.1.15,2013-01-01 07:55:00,
2013-01-01 03:05:00,32.9,31.4,30.05,SW,222,0.0,0.0,94,0.00,,,0.00,Wunderground v.1.15,2013-01-01 08:05:00,
2013-01-01 03:10:00,32.9,31.4,30.05,SW,222,0.0,0.0,94,0.00,,,0.00,Wunderground v.1.15,2013-01-01 08:10:00,
2013-01-01 03:20:00,32.9,31.4,30.06,SW,222,0.0,0.0,94,0.00,,,0.00,Wunderground v.1.15,2013-01-01 08:20:00,
2013-01-01 03:25:00,32.9,31.4,30.06,SW,222,0.0,0.0,94,0.00,,,0.00,Wunderground v.1.15,2013-01-01 08:25:00,
2013-01-01 03:30:00,33.1,31.8,30.05,SW,222,0.0,0.0,95,0.00,,,0.00,Wunderground v.1.15,2013-01-01 08:30:00,
2013-01-01 03:40:00,32.9,31.6,30.05,SW,222,0.0,0.0,95,0.00,,,0.00,Wunderground v.1.15,2013-01-01 08:40:00,
2013-01-01 03:50:00,33.2,31.9,30.05,SW,222,0.0,0.0,95,0.00,,,0.00,Wunderground v.1.15,2013-01-01 08:50:00,
2013-01-01 04:00:00,33.2,31.9,30.04,SSW,196,0.0,1.0,95,0.00,,,0.00,Wunderground v.1.15,2013-01-01 09:00:00,
2013-01-01 04:10:00,33.4,32.1,30.04,SSW,196,0.0,0.0,95,0.00,,,0.00,Wunderground v.1.15,2013-01-01 09:10:00,
2013-01-01 04:15:00,33.4,32.1,30.05,SSW,196,0.0,0.0,95,0.00,,,0.00,Wunderground v.1.15,2013-01-01 09:15:00,
2013-01-01 04:25:00,33.5,32.5,30.05,SSW,196,0.0,0.0,96,0.00,,,0.00,Wunderground v.1.15,2013-01-01 09:25:00,
2013-01-01 04:35:00,33.4,32.4,30.04,SSW,196,0.0,0.0,96,0.00,,,0.00,Wunderground v.1.15,2013-01-01 09:35:00,
2013-01-01 04:40:00,33.4,32.4,30.04,SSW,196,0.0,2.0,96,0.00,,,0.00,Wunderground v.1.15,2013-01-01 09:40:00,
2013-01-01 04:50:00,33.4,32.4,30.04,SSW,196,0.0,0.0,96,0.00,,,0.00,Wunderground v.1.15,2013-01-01 09:50:00,
2013-01-01 05:00:00,33.4,32.4,30.04,SSW,196,0.0,0.0,96,0.00,,,0.00,Wunderground v.1.15,2013-01-01 10:00:00,
2013-01-01 05:10:00,33.5,32.5,30.04,SSW,196,0.0,0.0,96,0.00,,,0.00,Wunderground v.1.15,2013-01-01 10:10:00,
2013-01-01 05:20:00,33.5,32.5,30.03,SSW,196,0.0,0.0,96,0.00,,,0.00,Wunderground v.1.15,2013-01-01 10:20:00,
2013-01-01 05:29:00,33.5,32.5,30.03,SSW,196,0.0,0.0,96,0.00,,,0.00,Wunderground v.1.15,2013-01-01 10:29:00,
2013-01-01 05:35:00,33.5,32.5,30.03,SSW,196,0.0,0.0,96,0.00,,,0.00,Wunderground v.1.15,2013-01-01 10:35:00,
2013-01-01 05:45:00,33.5,32.5,30.04,SSW,196,0.0,1.0,96,0.00,,,0.00,Wunderground v.1.15,2013-01-01 10:45:00,
2013-01-01 05:50:00,33.5,32.5,30.04,SSW,196,0.0,0.0,96,0.00,,,0.00,Wunderground v.1.15,2013-01-01 10:50:00,
2013-01-01 06:00:00,33.5,32.7,30.04,SSW,196,0.0,0.0,97,0.00,,,0.00,Wunderground v.1.15,2013-01-01 11:00:00,
2013-01-01 06:10:00,33.5,32.7,30.04,SSW,196,0.0,0.0,97,0.00,,,0.00,Wunderground v.1.15,2013-01-01 11:10:00,
2013-01-01 06:15:00,33.5,32.7,30.04,SSW,196,0.0,0.0,97,0.00,,,0.00,Wunderground v.1.15,2013-01-01 11:15:00,
2013-01-01 06:20:00,33.5,32.7,30.04,SSW,196,0.0,0.0,97,0.00,,,0.00,Wunderground v.1.15,2013-01-01 11:20:00,
2013-01-01 06:30:00,33.5,32.7,30.04,SSW,196,0.0,0.0,97,0.00,,,0.00,Wunderground v.1.15,2013-01-01 11:30:00,
2013-01-01 06:40:00,-999.9,-99.9,30.04,North,32767,-999.0,0.0,255,-99.99,,,0.00,Wunderground v.1.15,2013-01-01 11:40:00,
2013-01-01 06:49:00,-999.9,-99.9,30.04,North,32767,-999.0,0.0,255,-99.99,,,0.00,Wunderground v.1.15,2013-01-01 11:49:00,
2013-01-01 06:55:00,-999.9,-99.9,30.04,North,32767,-999.0,0.0,255,-99.99,,,0.00,Wunderground v.1.15,2013-01-01 11:55:00,
2013-01-01 07:05:00,-999.9,-99.9,30.02,North,32767,-999.0,0.0,255,-99.99,,,0.00,Wunderground v.1.15,2013-01-01 12:05:00,
2013-01-01 07:15:00,-999.9,-99.9,30.04,North,32767,-999.0,0.0,255,-99.99,,,0.00,Wunderground v.1.15,2013-01-01 12:15:00,
2013-01-01 07:20:00,-999.9,-99.9,30.04,North,32767,-999.0,0.0,255,-99.99,,,0.00,Wunderground v.1.15,2013-01-01 12:20:00,
2013-01-01 07:30:00,-999.9,-99.9,30.04,North,32767,-999.0,0.0,255,-99.99,,,0.00,Wunderground v.1.15,2013-01-01 12:30:00,
2013-01-01 07:40:00,-999.9,-99.9,30.04,North,32767,-999.0,0.0,255,-99.99,,,0.00,Wunderground v.1.15,2013-01-01 12:40:00,
2013-01-01 07:49:00,-999.9,-99.9,30.05,North,32767,-999.0,0.0,255,-99.99,,,0.00,Wunderground v.1.15,2013-01-01 12:49:00,
2013-01-01 07:55:00,-999.9,-99.9,30.05,North,32767,-999.0,0.0,255,-99.99,,,0.00,Wunderground v.1.15,2013-01-01 12:55:00,
2013-01-01 08:05:00,33.8,-99.9,30.05,SSW,196,0.0,0.0,255,0.00,,,0.00,Wunderground v.1.15,2013-01-01 13:05:00,
2013-01-01 08:15:00,33.8,-99.9,30.05,SSW,196,0.0,0.0,255,0.00,,,0.00,Wunderground v.1.15,2013-01-01 13:15:00,
2013-01-01 08:25:00,34.0,33.5,30.05,SSW,196,0.0,0.0,98,0.00,,,0.00,Wunderground v.1.15,2013-01-01 13:25:00,
2013-01-01 08:34:00,34.0,33.5,30.06,SSW,199,0.0,0.0,98,0.00,,,0.00,Wunderground v.1.15,2013-01-01 13:34:00,
2013-01-01 08:40:00,34.0,33.5,30.06,SSW,199,0.0,0.0,98,0.00,,,0.00,Wunderground v.1.15,2013-01-01 13:40:00,
2013-01-01 08:45:00,34.1,33.6,30.06,SSW,199,0.0,0.0,98,0.00,,,0.00,Wunderground v.1.15,2013-01-01 13:45:00,
2013-01-01 08:50:00,34.1,33.6,30.06,SSW,199,0.0,0.0,98,0.00,,,0.00,Wunderground v.1.15,2013-01-01 13:50:00,
2013-01-01 09:00:00,34.1,33.6,30.05,SSW,199,0.0,0.0,98,0.00,,,0.00,Wunderground v.1.15,2013-01-01 14:00:00,
2013-01-01 09:09:00,34.1,33.6,30.05,SSW,199,0.0,0.0,98,0.00,,,0.00,Wunderground v.1.15,2013-01-01 14:09:00,
2013-01-01 09:15:00,34.3,33.8,30.05,SSW,199,0.0,0.0,98,0.00,,,0.00,Wunderground v.1.15,2013-01-01 14:15:00,
2013-01-01 09:25:00,34.3,33.8,30.05,SSW,199,0.0,0.0,98,0.00,,,0.00,Wunderground v.1.15,2013-01-01 14:25:00,
2013-01-01 09:30:00,34.3,33.8,30.06,SSW,199,0.0,0.0,98,0.00,,,0.00,Wunderground v.1.15,2013-01-01 14:30:00,
2013-01-01 09:40:00,34.4,33.9,30.06,SSW,199,0.0,0.0,98,0.00,,,0.00,Wunderground v.1.15,2013-01-01 14:40:00,
2013-01-01 09:50:00,34.6,34.1,30.06,SSW,199,0.0,0.0,98,0.00,,,0.00,Wunderground v.1.15,2013-01-01 14:50:00,
2013-01-01 10:00:00,34.7,34.2,30.06,SSW,199,0.0,0.0,98,0.00,,,0.00,Wunderground v.1.15,2013-01-01 15:00:00,
2013-01-01 10:09:00,34.9,34.4,30.06,SSW,199,0.0,0.0,98,0.00,,,0.00,Wunderground v.1.15,2013-01-01 15:09:00,
2013-01-01 10:15:00,34.9,34.4,30.06,SSW,199,0.0,0.0,98,0.00,,,0.00,Wunderground v.1.15,2013-01-01 15:15:00,
2013-01-01 10:25:00,34.9,34.4,30.06,SSW,199,0.0,2.0,98,0.00,,,0.00,Wunderground v.1.15,2013-01-01 15:25:00,
2013-01-01 10:30:00,34.9,34.4,30.06,SSW,199,0.0,0.0,98,0.00,,,0.00,Wunderground v.1.15,2013-01-01 15:30:00,
2013-01-01 10:40:00,34.9,34.4,30.06,SSW,199,0.0,0.0,98,0.00,,,0.00,Wunderground v.1.15,2013-01-01 15:40:00,
2013-01-01 10:50:00,35.0,34.5,30.06,SSW,199,0.0,2.0,98,0.00,,,0.00,Wunderground v.1.15,2013-01-01 15:50:00,
2013-01-01 11:00:00,35.2,34.7,30.07,SW,223,0.0,2.0,98,0.82,,,0.05,Wunderground v.1.15,2013-01-01 16:00:00,
2013-01-01 11:10:00,35.2,34.4,30.07,SW,223,0.0,0.0,97,0.22,,,0.15,Wunderground v.1.15,2013-01-01 16:10:00,
2013-01-01 11:19:00,35.3,34.5,30.05,SW,234,1.0,1.0,97,0.05,,,0.15,Wunderground v.1.15,2013-01-01 16:19:00,
2013-01-01 11:25:00,35.3,34.5,30.05,SW,234,1.0,1.0,97,0.04,,,0.16,Wunderground v.1.15,2013-01-01 16:25:00,
2013-01-01 11:35:00,35.6,34.8,30.04,SW,234,0.0,0.0,97,0.04,,,0.16,Wunderground v.1.15,2013-01-01 16:35:00,
2013-01-01 11:40:00,35.6,34.8,30.04,West,277,1.0,2.0,97,0.04,,,0.16,Wunderground v.1.15,2013-01-01 16:40:00,
2013-01-01 11:50:00,35.6,34.8,30.03,West,271,1.0,1.0,97,0.00,,,0.17,Wunderground v.1.15,2013-01-01 16:50:00,
2013-01-01 12:00:00,35.8,34.8,30.03,NW,315,2.0,2.0,96,0.00,,,0.17,Wunderground v.1.15,2013-01-01 17:00:00,
2013-01-01 12:10:00,35.8,34.5,30.03,NW,305,1.0,1.0,95,0.00,,,0.17,Wunderground v.1.15,2013-01-01 17:10:00,
2013-01-01 12:15:00,35.8,34.5,30.04,NW,305,1.0,1.0,95,0.00,,,0.18,Wunderground v.1.15,2013-01-01 17:15:00,
2013-01-01 12:25:00,35.6,34.3,30.04,West,263,1.0,1.0,95,0.00,,,0.18,Wunderground v.1.15,2013-01-01 17:25:00,
2013-01-01 12:35:00,35.8,34.2,30.03,West,267,1.0,1.0,94,0.00,,,0.18,Wunderground v.1.15,2013-01-01 17:35:00,
2013-01-01 12:40:00,35.9,34.3,30.03,West,267,0.0,3.0,94,0.00,,,0.18,Wunderground v.1.15,2013-01-01 17:40:00,
2013-01-01 12:49:00,36.0,34.2,30.01,West,267,0.0,0.0,93,0.00,,,0.19,Wunderground v.1.15,2013-01-01 17:49:00,
2013-01-01 12:55:00,36.0,34.2,30.01,West,267,0.0,1.0,93,0.00,,,0.19,Wunderground v.1.15,2013-01-01 17:55:00,
2013-01-01 13:00:00,36.0,34.2,30.00,West,267,0.0,0.0,93,0.00,,,0.19,Wunderground v.1.15,2013-01-01 18:00:00,
2013-01-01 13:10:00,36.0,33.9,30.00,West,267,0.0,1.0,92,0.00,,,0.19,Wunderground v.1.15,2013-01-01 18:10:00,
2013-01-01 13:20:00,35.9,33.5,30.02,West,261,1.0,1.0,91,0.00,,,0.20,Wunderground v.1.15,2013-01-01 18:20:00,
2013-01-01 13:29:00,35.8,33.4,30.01,West,264,1.0,1.0,91,0.00,,,0.20,Wunderground v.1.15,2013-01-01 18:29:00,
2013-01-01 13:35:00,35.8,33.4,30.01,West,264,1.0,1.0,91,0.00,,,0.20,Wunderground v.1.15,2013-01-01 18:35:00,
2013-01-01 13:40:00,35.8,33.2,30.01,West,278,1.0,1.0,90,0.00,,,0.20,Wunderground v.1.15,2013-01-01 18:40:00,
2013-01-01 13:50:00,35.8,33.2,30.02,West,278,0.0,0.0,90,0.00,,,0.20,Wunderground v.1.15,2013-01-01 18:50:00,
2013-01-01 14:00:00,35.8,33.2,30.00,WNW,285,1.0,2.0,90,0.00,,,0.20,Wunderground v.1.15,2013-01-01 19:00:00,
2013-01-01 14:10:00,35.6,32.7,30.00,West,277,2.0,2.0,89,0.00,,,0.20,Wunderground v.1.15,2013-01-01 19:10:00,
2013-01-01 14:15:00,35.6,32.7,30.02,West,281,1.0,2.0,89,0.00,,,0.21,Wunderground v.1.15,2013-01-01 19:15:00,
2013-01-01 14:25:00,35.6,32.7,30.02,West,281,1.0,2.0,89,0.00,,,0.21,Wunderground v.1.15,2013-01-01 19:25:00,
2013-01-01 14:35:00,35.6,32.7,30.02,WNW,285,1.0,2.0,89,0.00,,,0.21,Wunderground v.1.15,2013-01-01 19:35:00,
2013-01-01 14:40:00,35.6,32.4,30.02,WNW,298,2.0,3.0,88,0.00,,,0.21,Wunderground v.1.15,2013-01-01 19:40:00,
2013-01-01 14:50:00,35.5,32.3,30.01,WNW,288,2.0,2.0,88,0.00,,,0.21,Wunderground v.1.15,2013-01-01 19:50:00,
2013-01-01 15:00:00,35.5,32.0,30.02,WNW,287,1.0,5.0,87,0.00,,,0.21,Wunderground v.1.15,2013-01-01 20:00:00,
2013-01-01 15:10:00,35.6,32.1,30.02,West,260,1.0,1.0,87,0.00,,,0.21,Wunderground v.1.15,2013-01-01 20:10:00,
2013-01-01 15:19:00,35.6,32.1,30.03,West,264,0.0,0.0,87,0.00,,,0.22,Wunderground v.1.15,2013-01-01 20:19:00,
2013-01-01 15:25:00,35.6,32.1,30.03,West,281,1.0,2.0,87,0.00,,,0.22,Wunderground v.1.15,2013-01-01 20:25:00,
2013-01-01 15:35:00,35.8,32.3,30.03,WNW,282,0.0,1.0,87,0.00,,,0.22,Wunderground v.1.15,2013-01-01 20:35:00,
2013-01-01 15:45:00,35.8,32.0,30.03,WNW,282,1.0,2.0,86,0.00,,,0.22,Wunderground v.1.15,2013-01-01 20:45:00,
2013-01-01 15:54:00,35.8,32.0,30.03,WNW,282,0.0,1.0,86,0.00,,,0.22,Wunderground v.1.15,2013-01-01 20:54:00,
2013-01-01 15:59:00,35.6,31.8,30.03,WNW,282,0.0,0.0,86,0.00,,,0.22,Wunderground v.1.15,2013-01-01 20:59:00,
2013-01-01 16:05:00,35.6,31.8,30.03,WNW,282,0.0,0.0,86,0.00,,,0.22,Wunderground v.1.15,2013-01-01 21:05:00,
2013-01-01 16:14:00,35.5,32.0,30.02,WNW,282,0.0,1.0,87,0.00,,,0.22,Wunderground v.1.15,2013-01-01 21:14:00,
2013-01-01 16:20:00,35.5,32.0,30.02,WNW,282,0.0,1.0,87,0.00,,,0.22,Wunderground v.1.15,2013-01-01 21:20:00,
2013-01-01 16:25:00,35.5,32.0,30.02,WNW,282,0.0,1.0,87,0.00,,,0.22,Wunderground v.1.15,2013-01-01 21:25:00,
2013-01-01 16:35:00,35.3,31.8,30.04,WNW,299,1.0,1.0,87,0.00,,,0.22,Wunderground v.1.15,2013-01-01 21:35:00,
2013-01-01 16:44:00,35.3,31.8,30.04,WNW,302,0.0,1.0,87,0.00,,,0.23,Wunderground v.1.15,2013-01-01 21:44:00,
2013-01-01 16:49:00,35.3,31.8,30.04,WNW,298,1.0,1.0,87,0.00,,,0.23,Wunderground v.1.15,2013-01-01 21:49:00,
2013-01-01 16:55:00,35.2,31.7,30.04,WNW,298,0.0,1.0,87,0.00,,,0.23,Wunderground v.1.15,2013-01-01 21:55:00,
2013-01-01 17:05:00,35.2,31.7,30.05,WNW,298,0.0,0.0,87,0.00,,,0.23,Wunderground v.1.15,2013-01-01 22:05:00,
2013-01-01 17:10:00,35.2,31.7,30.05,WNW,298,0.0,0.0,87,0.00,,,0.23,Wunderground v.1.15,2013-01-01 22:10:00,
2013-01-01 17:20:00,35.0,31.5,30.04,WNW,298,0.0,0.0,87,0.00,,,0.23,Wunderground v.1.15,2013-01-01 22:20:00,
2013-01-01 17:30:00,35.0,31.5,30.03,WNW,298,0.0,0.0,87,0.00,,,0.23,Wunderground v.1.15,2013-01-01 22:30:00,
2013-01-01 17:40:00,34.9,31.4,30.03,WNW,298,0.0,0.0,87,0.00,,,0.23,Wunderground v.1.15,2013-01-01 22:40:00,
2013-01-01 17:50:00,34.9,31.4,30.04,WNW,298,0.0,0.0,87,0.00,,,0.23,Wunderground v.1.15,2013-01-01 22:50:00,
2013-01-01 18:00:00,34.9,31.4,30.04,WNW,298,0.0,0.0,87,0.00,,,0.23,Wunderground v.1.15,2013-01-01 23:00:00,
2013-01-01 18:09:00,34.9,31.4,30.04,WNW,299,0.0,1.0,87,0.00,,,0.23,Wunderground v.1.15,2013-01-01 23:09:00,
2013-01-01 18:15:00,34.7,31.2,30.05,West,260,1.0,3.0,87,0.00,,,0.23,Wunderground v.1.15,2013-01-01 23:15:00,
2013-01-01 18:20:00,34.4,30.9,30.05,West,265,1.0,1.0,87,0.00,,,0.23,Wunderground v.1.15,2013-01-01 23:20:00,
2013-01-01 18:30:00,34.1,30.6,30.06,West,265,0.0,0.0,87,0.00,,,0.23,Wunderground v.1.15,2013-01-01 23:30:00,
2013-01-01 18:40:00,33.8,30.3,30.06,NW,322,0.0,0.0,87,0.00,,,0.23,Wunderground v.1.15,2013-01-01 23:40:00,
2013-01-01 18:50:00,33.5,30.0,30.05,North,8,0.0,1.0,87,0.00,,,0.23,Wunderground v.1.15,2013-01-01 23:50:00,
2013-01-01 18:55:00,33.5,30.0,30.05,NNE,32,1.0,1.0,87,0.00,,,0.23,Wunderground v.1.15,2013-01-01 23:55:00,
2013-01-01 19:05:00,33.2,29.8,30.07,West,281,1.0,1.0,87,0.00,,,0.23,Wunderground v.1.15,2013-01-02 00:05:00,
2013-01-01 19:10:00,33.2,29.8,30.07,WNW,295,1.0,2.0,87,0.00,,,0.23,Wunderground v.1.15,2013-01-02 00:10:00,
2013-01-01 19:20:00,33.1,29.7,30.07,NNE,21,1.0,2.0,87,0.00,,,0.23,Wunderground v.1.15,2013-01-02 00:20:00,
2013-01-01 19:30:00,32.9,29.2,30.07,NW,312,1.0,1.0,86,0.00,,,0.23,Wunderground v.1.15,2013-01-02 00:30:00,
2013-01-01 19:40:00,32.8,29.1,30.07,North,357,1.0,1.0,86,0.00,,,0.23,Wunderground v.1.15,2013-01-02 00:40:00,
2013-01-01 19:49:00,32.7,28.7,30.06,North,354,0.0,0.0,85,0.00,,,0.23,Wunderground v.1.15,2013-01-02 00:49:00,
2013-01-01 19:55:00,32.7,28.7,30.06,North,356,0.0,0.0,85,0.00,,,0.23,Wunderground v.1.15,2013-01-02 00:55:00,
2013-01-01 20:05:00,32.5,28.2,30.07,North,11,1.0,2.0,84,0.00,,,0.23,Wunderground v.1.15,2013-01-02 01:05:00,
2013-01-01 20:10:00,32.4,27.8,30.07,North,0,1.0,1.0,83,0.00,,,0.23,Wunderground v.1.15,2013-01-02 01:10:00,
2013-01-01 20:20:00,32.4,27.5,30.07,North,3,1.0,1.0,82,0.00,,,0.23,Wunderground v.1.15,2013-01-02 01:20:00,
2013-01-01 20:30:00,32.4,27.5,30.06,North,0,1.0,1.0,82,0.00,,,0.23,Wunderground v.1.15,2013-01-02 01:30:00,
2013-01-01 20:40:00,32.2,27.0,30.06,NNW,344,0.0,0.0,81,0.00,,,0.23,Wunderground v.1.15,2013-01-02 01:40:00,
2013-01-01 20:49:00,32.2,26.7,30.07,North,359,0.0,1.0,80,0.00,,,0.23,Wunderground v.1.15,2013-01-02 01:49:00,
2013-01-01 20:59:00,32.2,26.7,30.07,NNW,342,0.0,2.0,80,0.00,,,0.23,Wunderground v.1.15,2013-01-02 01:59:00,
2013-01-01 21:05:00,32.1,26.3,30.07,NNW,339,1.0,2.0,79,0.00,,,0.23,Wunderground v.1.15,2013-01-02 02:05:00,
2013-01-01 21:10:00,32.1,26.3,30.07,NNW,342,0.0,0.0,79,0.00,,,0.23,Wunderground v.1.15,2013-01-02 02:10:00,
2013-01-01 21:20:00,31.9,25.8,30.08,NNW,339,0.0,0.0,78,0.00,,,0.23,Wunderground v.1.15,2013-01-02 02:20:00,
2013-01-01 21:30:00,31.9,25.5,30.07,NNW,343,0.0,0.0,77,0.00,,,0.23,Wunderground v.1.15,2013-01-02 02:30:00,
2013-01-01 21:39:00,31.9,25.5,30.07,NNW,343,0.0,1.0,77,0.00,,,0.23,Wunderground v.1.15,2013-01-02 02:39:00,
2013-01-01 21:45:00,31.8,25.7,30.07,NNW,347,0.0,1.0,78,0.00,,,0.23,Wunderground v.1.15,2013-01-02 02:45:00,
2013-01-01 21:55:00,31.8,25.4,30.07,North,7,0.0,1.0,77,0.00,,,0.23,Wunderground v.1.15,2013-01-02 02:55:00,
2013-01-01 22:00:00,31.8,25.7,30.07,NNW,337,0.0,0.0,78,0.00,,,0.23,Wunderground v.1.15,2013-01-02 03:00:00,
2013-01-01 22:10:00,31.8,25.7,30.07,North,0,0.0,1.0,78,0.00,,,0.23,Wunderground v.1.15,2013-01-02 03:10:00,
2013-01-01 22:19:00,31.6,25.2,30.08,WNW,289,1.0,1.0,77,0.00,,,0.23,Wunderground v.1.15,2013-01-02 03:19:00,
2013-01-01 22:25:00,31.6,25.2,30.08,NNW,329,0.0,1.0,77,0.00,,,0.23,Wunderground v.1.15,2013-01-02 03:25:00,
2013-01-01 22:35:00,31.5,24.8,30.08,North,4,0.0,0.0,76,0.00,,,0.23,Wunderground v.1.15,2013-01-02 03:35:00,
2013-01-01 22:45:00,31.3,24.6,30.09,WNW,302,0.0,1.0,76,0.00,,,0.23,Wunderground v.1.15,2013-01-02 03:45:00,
2013-01-01 22:50:00,31.3,24.6,30.09,NW,305,0.0,0.0,76,0.00,,,0.23,Wunderground v.1.15,2013-01-02 03:50:00,
2013-01-01 23:00:00,31.3,24.6,30.09,WNW,301,0.0,0.0,76,0.00,,,0.23,Wunderground v.1.15,2013-01-02 04:00:00,
2013-01-01 23:09:00,31.2,24.2,30.09,NW,305,0.0,0.0,75,0.00,,,0.23,Wunderground v.1.15,2013-01-02 04:09:00,
2013-01-01 23:15:00,31.0,24.0,30.10,WSW,257,0.0,0.0,75,0.00,,,0.23,Wunderground v.1.15,2013-01-02 04:15:00,
2013-01-01 23:25:00,30.9,23.6,30.10,West,277,0.0,7.0,74,0.00,,,0.23,Wunderground v.1.15,2013-01-02 04:25:00,
2013-01-01 23:30:00,30.9,23.6,30.11,West,268,1.0,3.0,74,0.00,,,0.23,Wunderground v.1.15,2013-01-02 04:30:00,
2013-01-01 23:40:00,30.7,23.7,30.11,WNW,296,1.0,1.0,75,0.00,,,0.23,Wunderground v.1.15,2013-01-02 04:40:00,
2013-01-01 23:50:00,30.4,23.4,30.10,WSW,247,1.0,2.0,75,0.00,,,0.23,Wunderground v.1.15,2013-01-02 04:50:00,